WetterOnline ( https://www.wetteronline.de )

Wetter aktuell Lößnitz

Aktuelles Wetter: Fichtelberg (1215m)

6-stündlich | Neueste Meldungen
Ortszeit Temperatur Wetter
Fr, 24.05. 20:00 9.3° C wolkig
Fr, 24.05. 14:00 10.3° C bewölkt
Fr, 24.05. 8:00 11.9° C wolkig
Fr, 24.05. 2:00 8.8° C wolkenlos
Do, 23.05. 20:00 11.9° C wolkig
Do, 23.05. 14:00 12.8° C bewölkt
Do, 23.05. 8:00 7.9° C Nebel
Do, 23.05. 2:00 8.1° C Nebel
Ortszeit Temperatur Wetter
Sa, 25.05. 0:00 9.0° C Nebel
Fr, 24.05. 23:50 9.0° C Nebel
Fr, 24.05. 23:40 9.0° C Nebel
Fr, 24.05. 23:30 8.9° C Nebel
Fr, 24.05. 23:20 8.9° C Dunst
Fr, 24.05. 23:10 8.9° C Nebel
Fr, 24.05. 23:00 8.9° C Nebel
Fr, 24.05. 22:30 8.6° C Nebel
Fr, 24.05. 22:00 9.0° C Nebel
Fr, 24.05. 21:30 8.6° C bewölkt
Fr, 24.05. 21:00 8.6° C bewölkt
Ortszeit Relative Feuchte Sichtweite
Fr, 24.05. 20:00 97% 28 km
Fr, 24.05. 14:00 97% 16 km
Fr, 24.05. 8:00 79% 50 km
Fr, 24.05. 2:00 89% 26 km
Do, 23.05. 20:00 80% 45 km
Do, 23.05. 14:00 73% >70 km
Do, 23.05. 8:00 99% 100 m
Do, 23.05. 2:00 100% <100 m
Ortszeit Relative Feuchte Sichtweite
Sa, 25.05. 0:00 100% 100 m
Fr, 24.05. 23:50 100% -
Fr, 24.05. 23:40 100% -
Fr, 24.05. 23:30 99% 1.0 km
Fr, 24.05. 23:20 99% -
Fr, 24.05. 23:10 100% -
Fr, 24.05. 23:00 100% 100 m
Fr, 24.05. 22:30 99% 1.2 km
Fr, 24.05. 22:00 100% 100 m
Fr, 24.05. 21:30 99% 17 km
Fr, 24.05. 21:00 97% 30 km
Ortszeit Niederschlagsmenge Niederschlagsart
Fr, 24.05. 20:00 9 l/m2 in 12 Std. Regen
Fr, 24.05. 14:00 5 l/m2 in 6 Std. Regen
Fr, 24.05. 8:00 0.0 l/m2 in 12 Std. -
Fr, 24.05. 2:00 0.0 l/m2 in 6 Std. -
Do, 23.05. 20:00 0.1 l/m2 in 12 Std. Regen
Do, 23.05. 14:00 0.0 l/m2 in 6 Std. -
Do, 23.05. 8:00 0.4 l/m2 in 12 Std. -
Do, 23.05. 2:00 0.4 l/m2 in 6 Std. Regen
Ortszeit Niederschlagsmenge Niederschlagsart
Sa, 25.05. 0:00 0.0 l/m2 in 1 Std. -
Fr, 24.05. 23:50 keine Meldung -
Fr, 24.05. 23:40 keine Meldung -
Fr, 24.05. 23:30 0.0 l/m2 in 30 Min -
Fr, 24.05. 23:20 keine Meldung -
Fr, 24.05. 23:10 keine Meldung -
Fr, 24.05. 23:00 0.0 l/m2 in 1 Std. -
Fr, 24.05. 22:30 0.0 l/m2 in 30 Min -
Fr, 24.05. 22:00 0.0 l/m2 in 1 Std. -
Fr, 24.05. 21:30 0.0 l/m2 in 30 Min -
Fr, 24.05. 21:00 0.0 l/m2 in 1 Std. -
Ortszeit Stärke Spitze Richtung
km/h Bft. km/h Grad Sektor
Fr, 24.05. 20:00 26 4 37 140° SO
Fr, 24.05. 14:00 24 4 50 130° SO
Fr, 24.05. 8:00 17 3 37 100° O
Fr, 24.05. 2:00 31 5 37 110° O
Do, 23.05. 20:00 11 2 25 40° NO
Do, 23.05. 14:00 14 3 40 320° NW
Do, 23.05. 8:00 28 4 57 300° NW
Do, 23.05. 2:00 36 5 50 280° W
Ortszeit Stärke Spitze Richtung
km/h Bft. km/h Grad Sektor
Sa, 25.05. 0:00 18 3 29 190° S
Fr, 24.05. 23:50 18 3 - 190° S
Fr, 24.05. 23:40 18 3 - 180° S
Fr, 24.05. 23:30 20 4 28 190° S
Fr, 24.05. 23:20 20 4 - 190° S
Fr, 24.05. 23:10 22 4 - 180° S
Fr, 24.05. 23:00 17 3 22 150° SO
Fr, 24.05. 22:30 15 3 22 160° S
Fr, 24.05. 22:00 19 3 30 140° SO
Fr, 24.05. 21:30 26 4 30 150° SO
Fr, 24.05. 21:00 22 4 26 140° SO
Ortszeit Untergrenze Bedeckung Gattung
total tief tief mittel hoch
Fr, 24.05. 20:00 30 m 7/8 1/8 - - -
Fr, 24.05. 14:00 <30 m 7/8 0/8 - - -
Fr, 24.05. 8:00 2400 m 7/8 3/8 - - -
Fr, 24.05. 2:00 - 0/8 0/8 - - -
Do, 23.05. 20:00 870 m 6/8 6/8 - - -
Do, 23.05. 14:00 870 m 7/8 7/8 - - -
Do, 23.05. 8:00 <30 m 8/8 0/8 - - -
Do, 23.05. 2:00 <30 m 8/8 0/8 - - -
Ortszeit Bedeckungsgrad in Achtel und Wolkenuntergrenze
Sa, 25.05. 0:00 7(<30m) 7(120m) 7(5400m)
Fr, 24.05. 23:50 7(<30m) 7(120m) 7(5400m)
Fr, 24.05. 23:40 7
Fr, 24.05. 23:30 7(<30m)
Fr, 24.05. 23:20 7(<30m)
Fr, 24.05. 23:10 8
Fr, 24.05. 23:00 7(<30m)
Fr, 24.05. 22:30 5(<30m)
Fr, 24.05. 22:00 7(<30m)
Fr, 24.05. 21:30 6(5400m) 7(6300m) 7(6900m)
Fr, 24.05. 21:00 6(5400m) 7(6900m) 8(8100m)
Ortszeit Stationsdruck (hPa) Tendenz (hPa in 3 Std.)
Fr, 24.05. 20:00 880 - 0,3
Fr, 24.05. 14:00 881 0,0
Fr, 24.05. 8:00 881 0,0
Fr, 24.05. 2:00 881 - 0,2
Do, 23.05. 20:00 880 + 0,3
Do, 23.05. 14:00 880 + 0,5
Do, 23.05. 8:00 878 + 1,4
Do, 23.05. 2:00 877 - 0,5
Ortszeit Stationsdruck (hPa) Tendenz (hPa in 3 Std.)
Sa, 25.05. 0:00 881 + 0,7
Fr, 24.05. 23:50 881 keine Meldung
Fr, 24.05. 23:40 881 keine Meldung
Fr, 24.05. 23:30 881 + 0,4
Fr, 24.05. 23:20 881 keine Meldung
Fr, 24.05. 23:10 881 keine Meldung
Fr, 24.05. 23:00 881 + 0,5
Fr, 24.05. 22:30 881 + 0,3
Fr, 24.05. 22:00 881 + 0,1
Fr, 24.05. 21:30 881 0,0
Fr, 24.05. 21:00 880 - 0,2
Ortszeit Schneehöhe (cm)
Fr, 24.05. 20:00 0
Fr, 24.05. 14:00 0
Fr, 24.05. 8:00 0
Fr, 24.05. 2:00 0
Do, 23.05. 20:00 0
Do, 23.05. 14:00 0
Do, 23.05. 8:00 0
Do, 23.05. 2:00 0
Ortszeit Schneehöhe (cm)
Sa, 25.05. 0:00 0
Fr, 24.05. 23:50 0
Fr, 24.05. 23:40 -
Fr, 24.05. 23:30 0
Fr, 24.05. 23:20 0
Fr, 24.05. 23:10 -
Fr, 24.05. 23:00 0
Fr, 24.05. 22:30 0
Fr, 24.05. 22:00 0
Fr, 24.05. 21:30 0
Fr, 24.05. 21:00 0
Link zu dieser Seite / Seite empfehlen

Das Wetter in ...